Time;durP1;ratioP1;P1;durP2;ratioP2;P2;SDS_P1;SDS_P2;PMS_P1;PMS_P2;Temp;Humidity;BMP_temperature;BMP_pressure;BME280_temperature;BME280_humidity;BME280_pressure;Samples;Min_cycle;Max_cycle;Signal;HPM_P1;HPM_P2
2023/11/17 00:00:56;;;;;;;76.90;47.60;;;;;;;4.77;81.61;96414.88;105060;1257;101256;-75
2023/11/17 00:03:44;;;;;;;73.00;47.60;;;;;;;4.77;81.71;96409.90;105030;1256;98803;-74
2023/11/17 00:06:12;;;;;;;74.50;47.20;;;;;;;4.77;81.76;96409.90;105023;1254;97038;-80
2023/11/17 00:08:39;;;;;;;73.90;47.30;;;;;;;4.78;81.80;96411.74;105026;1265;96519;-78
2023/11/17 00:11:07;;;;;;;73.50;46.00;;;;;;;4.78;81.82;96410.56;105069;1264;109961;-78
2023/11/17 00:13:35;;;;;;;76.30;46.20;;;;;;;4.78;81.95;96402.09;105158;1256;100494;-78
2023/11/17 00:16:03;;;;;;;70.50;45.50;;;;;;;4.77;82.04;96391.30;105031;1266;100168;-78
2023/11/17 00:18:31;;;;;;;77.70;48.90;;;;;;;4.78;82.09;96382.51;104728;1260;96671;-78
2023/11/17 00:20:59;;;;;;;89.90;57.40;;;;;;;4.79;82.16;96383.95;105079;1264;98400;-78
2023/11/17 00:23:28;;;;;;;79.90;52.60;;;;;;;4.79;82.16;96396.34;105077;1265;101324;-78
2023/11/17 00:25:56;;;;;;;77.60;52.60;;;;;;;4.79;82.21;96393.88;105031;1257;101542;-78
2023/11/17 00:28:25;;;;;;;80.20;52.40;;;;;;;4.78;82.20;96387.40;105136;1256;100071;-78
2023/11/17 00:30:53;;;;;;;79.20;53.80;;;;;;;4.78;82.31;96384.70;104778;1254;97452;-82
2023/11/17 00:33:20;;;;;;;84.40;53.20;;;;;;;4.79;82.43;96384.08;105187;1254;97480;-82
2023/11/17 00:35:48;;;;;;;83.90;53.30;;;;;;;4.80;82.50;96388.28;105092;1264;101433;-82
2023/11/17 00:38:16;;;;;;;81.00;53.60;;;;;;;4.80;82.42;96387.17;105062;1266;101477;-82
2023/11/17 00:40:43;;;;;;;81.90;53.80;;;;;;;4.80;82.58;96384.74;105045;1264;99927;-82
2023/11/17 00:43:11;;;;;;;83.90;54.90;;;;;;;4.80;82.63;96380.63;105098;1256;96600;-82
2023/11/17 00:45:39;;;;;;;76.40;52.20;;;;;;;4.80;82.70;96378.45;105064;1254;97229;-81
2023/11/17 00:48:07;;;;;;;73.80;48.60;;;;;;;4.80;82.77;96373.42;105087;1258;102254;-81
2023/11/17 00:50:34;;;;;;;69.20;45.00;;;;;;;4.80;82.82;96369.52;105053;1257;101615;-81
2023/11/17 00:53:05;;;;;;;74.70;46.10;;;;;;;4.80;82.86;96364.13;105046;1256;100405;-81
2023/11/17 00:55:33;;;;;;;70.40;44.30;;;;;;;4.81;82.93;96359.38;104914;1269;96715;-81
2023/11/17 00:58:03;;;;;;;69.60;44.80;;;;;;;4.81;83.10;96357.44;105055;1264;98552;-81
2023/11/17 01:00:33;;;;;;;88.30;52.80;;;;;;;4.82;83.21;96358.06;104997;1265;102439;-82
2023/11/17 01:03:01;;;;;;;93.30;58.30;;;;;;;4.83;83.08;96356.11;105120;1264;101889;-81
2023/11/17 01:05:30;;;;;;;80.30;49.20;;;;;;;4.84;83.14;96350.15;104732;1260;99887;-81
2023/11/17 01:07:58;;;;;;;74.80;47.00;;;;;;;4.84;83.35;96350.23;105036;1266;96568;-82
2023/11/17 01:10:26;;;;;;;71.50;43.60;;;;;;;4.84;83.39;96345.91;105212;1264;97176;-81
2023/11/17 01:12:54;;;;;;;75.10;43.60;;;;;;;4.86;83.44;96343.41;105026;1260;100822;-81
2023/11/17 01:15:22;;;;;;;70.30;40.30;;;;;;;4.88;83.42;96340.98;105126;1265;101738;-80
2023/11/17 01:17:49;;;;;;;74.90;41.80;;;;;;;4.88;83.42;96338.32;105050;1264;98998;-80
2023/11/17 01:20:18;;;;;;;66.90;41.40;;;;;;;4.88;83.58;96334.70;105063;1257;96809;-81
2023/11/17 01:22:46;;;;;;;77.20;44.00;;;;;;;4.90;83.57;96329.73;105083;1253;96566;-81
2023/11/17 01:25:13;;;;;;;67.90;40.60;;;;;;;4.90;83.72;96327.14;105069;1256;102459;-81
2023/11/17 01:27:41;;;;;;;64.40;40.00;;;;;;;4.91;83.77;96327.06;105089;1256;101675;-81
2023/11/17 01:30:10;;;;;;;58.60;38.00;;;;;;;4.93;83.95;96320.77;105103;1256;100092;-81
2023/11/17 01:32:38;;;;;;;66.00;40.00;;;;;;;4.93;83.94;96316.09;104942;1257;97394;-80
2023/11/17 01:35:06;;;;;;;57.10;37.70;;;;;;;4.94;83.86;96316.54;105068;1264;97048;-80
2023/11/17 01:37:34;;;;;;;61.20;38.10;;;;;;;4.94;83.94;96314.11;105122;1257;102286;-80
2023/11/17 01:40:02;;;;;;;59.70;39.20;;;;;;;4.95;83.94;96308.36;105067;1257;100238;-80
2023/11/17 01:42:33;;;;;;;59.90;37.90;;;;;;;4.95;84.03;96300.48;105068;1264;100141;-80
2023/11/17 01:45:01;;;;;;;62.60;39.30;;;;;;;4.95;84.00;96296.70;105049;1275;96549;-80
2023/11/17 01:47:30;;;;;;;65.10;41.80;;;;;;;4.97;84.05;96293.65;105102;1263;97067;-78
2023/11/17 01:49:58;;;;;;;61.30;39.30;;;;;;;4.98;84.05;96292.84;105055;1264;102594;-78
2023/11/17 01:52:27;;;;;;;64.10;39.60;;;;;;;4.97;84.09;96285.17;104973;1258;101480;-78
2023/11/17 01:54:56;;;;;;;61.90;40.30;;;;;;;4.98;84.08;96280.33;105148;1265;100304;-78
2023/11/17 01:57:25;;;;;;;64.40;39.20;;;;;;;4.98;84.13;96276.88;104732;1260;96734;-78
2023/11/17 01:59:53;;;;;;;61.10;39.50;;;;;;;4.96;84.18;96275.35;105093;1257;96688;-78
2023/11/17 02:02:21;;;;;;;59.30;39.40;;;;;;;4.97;84.30;96273.05;105093;1265;102654;-81
2023/11/17 02:04:49;;;;;;;61.50;39.50;;;;;;;4.98;84.28;96271.60;105085;1267;100562;-81
2023/11/17 02:07:26;;;;;;;64.40;41.70;;;;;;;4.98;84.40;96274.20;105045;1257;100210;-81
2023/11/17 02:10:28;;;;;;;66.60;42.60;;;;;;;5.00;84.26;96272.77;105065;1265;97014;-82
2023/11/17 02:12:59;;;;;;;61.70;41.70;;;;;;;4.99;84.35;96269.88;104971;1257;96478;-82
2023/11/17 02:15:34;;;;;;;48.30;31.00;;;;;;;4.97;84.44;96262.55;105044;1257;101798;-82
2023/11/17 02:18:10;;;;;;;64.80;40.40;;;;;;;4.96;84.56;96259.34;104951;1266;101195;-78
2023/11/17 02:20:38;;;;;;;62.70;40.80;;;;;;;4.96;84.67;96258.69;104954;1275;100271;-78
2023/11/17 02:23:15;;;;;;;62.20;40.20;;;;;;;4.95;84.65;96249.48;104991;1258;96548;-79
2023/11/17 02:26:15;;;;;;;57.20;36.90;;;;;;;4.94;84.62;96243.52;104617;1263;97497;-80
2023/11/17 02:28:58;;;;;;;58.80;40.30;;;;;;;4.94;84.65;96239.85;105051;1251;102200;-80
2023/11/17 02:31:32;;;;;;;61.20;38.80;;;;;;;4.93;84.77;96235.83;105057;1257;101726;-80
2023/11/17 02:34:10;;;;;;;59.40;39.30;;;;;;;4.92;84.73;96234.02;104805;1264;99095;-81
2023/11/17 02:36:39;;;;;;;61.70;40.90;;;;;;;4.93;84.88;96230.92;104742;1270;97167;-81
2023/11/17 02:39:14;;;;;;;61.60;39.50;;;;;;;4.93;84.83;96227.51;105092;1264;97051;-81
2023/11/17 02:41:47;;;;;;;58.40;39.80;;;;;;;4.92;84.95;96224.72;105107;1257;102345;-81
2023/11/17 02:44:16;;;;;;;66.60;42.00;;;;;;;4.94;85.04;96220.98;105123;1257;101358;-81
2023/11/17 02:46:45;;;;;;;70.60;43.40;;;;;;;4.94;85.05;96213.93;104954;1258;97729;-81
2023/11/17 02:49:29;;;;;;;72.50;45.20;;;;;;;4.93;84.94;96208.75;104682;1264;96847;-81
2023/11/17 02:52:02;;;;;;;77.90;48.70;;;;;;;4.93;85.00;96209.33;104787;1266;97077;-81
2023/11/17 02:54:34;;;;;;;73.70;47.80;;;;;;;4.94;85.11;96213.12;104930;1267;102112;-81
2023/11/17 02:57:03;;;;;;;79.60;50.00;;;;;;;4.95;85.08;96209.08;104814;1264;101334;-81
2023/11/17 02:59:35;;;;;;;83.70;50.60;;;;;;;4.95;85.17;96201.72;105048;1257;99887;-79
2023/11/17 03:02:03;;;;;;;74.60;47.80;;;;;;;4.97;85.22;96204.66;104983;1267;96986;-81
2023/11/17 03:04:32;;;;;;;75.70;47.20;;;;;;;4.98;85.20;96207.84;104627;1275;97094;-81
2023/11/17 03:07:02;;;;;;;71.30;46.30;;;;;;;5.00;85.29;96206.56;105004;1275;102433;-81
2023/11/17 03:09:33;;;;;;;66.10;44.60;;;;;;;5.03;85.22;96207.59;105085;1258;101629;-81
2023/11/17 03:12:01;;;;;;;68.90;44.20;;;;;;;5.06;85.24;96208.96;105022;1257;98288;-81
2023/11/17 03:14:29;;;;;;;67.90;41.50;;;;;;;5.07;85.20;96206.77;105095;1257;97463;-82
2023/11/17 03:17:00;;;;;;;61.70;40.70;;;;;;;5.07;85.14;96204.23;105048;1266;97787;-82
2023/11/17 03:19:30;;;;;;;57.50;38.00;;;;;;;5.05;85.15;96204.69;105036;1266;102545;-82
2023/11/17 03:21:57;;;;;;;55.70;37.80;;;;;;;5.03;85.27;96205.09;105114;1251;101563;-81
2023/11/17 03:24:27;;;;;;;55.70;37.30;;;;;;;5.02;85.36;96206.27;105058;1257;99729;-81
2023/11/17 03:26:57;;;;;;;59.50;38.80;;;;;;;5.01;85.35;96203.15;104876;1264;96923;-82
2023/11/17 03:29:27;;;;;;;55.70;36.10;;;;;;;5.02;85.35;96202.33;104962;1254;97167;-82
2023/11/17 03:31:57;;;;;;;54.40;35.30;;;;;;;5.03;85.40;96205.01;104809;1269;102253;-78
2023/11/17 03:34:30;;;;;;;54.50;34.40;;;;;;;5.04;85.40;96205.50;105011;1257;101172;-78
2023/11/17 03:37:00;;;;;;;51.00;33.20;;;;;;;5.04;85.46;96206.52;104733;1270;100043;-77
2023/11/17 03:39:32;;;;;;;42.70;30.60;;;;;;;5.04;85.49;96206.86;105151;1264;96634;-81
2023/11/17 03:42:01;;;;;;;50.00;31.80;;;;;;;5.05;85.48;96208.95;105081;1257;96499;-81
2023/11/17 03:44:29;;;;;;;44.30;30.00;;;;;;;5.04;85.50;96209.13;105148;1261;102217;-81
2023/11/17 03:46:58;;;;;;;43.60;30.70;;;;;;;5.03;85.53;96209.23;105077;1258;101381;-80
2023/11/17 03:49:27;;;;;;;43.20;29.60;;;;;;;5.03;85.52;96208.05;104775;1260;99866;-80
2023/11/17 03:51:56;;;;;;;43.50;28.70;;;;;;;5.04;85.66;96207.06;105039;1266;96628;-79
2023/11/17 03:54:23;;;;;;;45.30;30.20;;;;;;;5.03;85.68;96201.55;105095;1265;96987;-80
2023/11/17 03:56:53;;;;;;;46.70;31.30;;;;;;;5.01;85.72;96200.15;105031;1255;102094;-80
2023/11/17 03:59:22;;;;;;;49.30;31.60;;;;;;;5.01;85.76;96196.45;105057;1251;101602;-78
2023/11/17 04:02:30;;;;;;;42.20;28.20;;;;;;;5.00;85.75;96193.02;105158;1261;99905;-82
2023/11/17 04:05:38;;;;;;;40.90;28.40;;;;;;;4.98;85.86;96194.54;103807;1269;96883;-82
2023/11/17 04:08:27;;;;;;;38.90;27.10;;;;;;;4.97;86.03;96194.83;103336;1280;99553;-80
2023/11/17 04:11:36;;;;;;;39.70;27.80;;;;;;;4.98;86.08;96193.64;103149;1280;101275;-80
2023/11/17 04:28:39;;;;;;;35.00;25.00;;;;;;;5.22;85.86;96187.50;101989;1294;642930;-77
2023/11/17 04:31:46;;;;;;;34.80;24.10;;;;;;;5.19;85.91;96185.61;103383;1274;95956;-77
2023/11/17 04:34:53;;;;;;;38.10;24.30;;;;;;;5.17;85.94;96186.20;102614;1289;95944;-76
2023/11/17 04:38:00;;;;;;;37.60;26.70;;;;;;;5.17;86.13;96189.41;102143;1295;98220;-77
2023/11/17 04:51:10;;;;;;;50.00;32.30;;;;;;;5.20;86.03;96189.08;101127;1301;638381;-77
2023/11/17 04:54:18;;;;;;;40.20;26.90;;;;;;;5.19;86.19;96191.98;103245;1284;96160;-77
2023/11/17 05:09:56;;;;;;;54.90;34.20;;;;;;;5.21;86.05;96190.20;102336;1298;639911;-77
2023/11/17 05:13:05;;;;;;;41.20;28.80;;;;;;;5.19;86.13;96192.91;103030;1286;96110;-77
2023/11/17 05:20:07;;;;;;;39.80;26.70;;;;;;;5.27;86.11;96188.43;101405;1311;642491;-77
2023/11/17 05:23:16;;;;;;;34.30;25.20;;;;;;;5.24;86.11;96191.70;103092;1280;95960;-76
2023/11/17 05:26:23;;;;;;;38.90;26.30;;;;;;;5.24;86.22;96190.91;102279;1289;97300;-76
2023/11/17 05:39:26;;;;;;;44.20;28.00;;;;;;;5.22;86.24;96185.77;101455;1302;637631;-81
2023/11/17 05:42:36;;;;;;;40.10;26.90;;;;;;;5.21;86.39;96185.15;102826;1284;96062;-77
2023/11/17 05:58:32;;;;;;;18.50;14.30;;;;;;;5.25;86.26;96198.11;101616;1294;637069;-81
2023/11/17 06:01:41;;;;;;;19.50;14.00;;;;;;;5.22;86.24;96200.80;103098;1284;95886;-76
2023/11/17 06:04:29;;;;;;;16.50;13.60;;;;;;;5.22;86.21;96201.41;102139;1295;97304;-77
2023/11/17 06:07:18;;;;;;;19.40;14.90;;;;;;;5.21;86.23;96204.37;102262;1293;100177;-78
2023/11/17 06:24:23;;;;;;;17.30;14.30;;;;;;;5.27;86.33;96203.75;101860;1294;638536;-77
2023/11/17 06:27:31;;;;;;;14.20;12.10;;;;;;;5.26;86.45;96213.35;102851;1281;95981;-78
2023/11/17 06:30:40;;;;;;;16.40;12.60;;;;;;;5.25;86.37;96213.80;102077;1296;96975;-77
2023/11/17 06:43:24;;;;;;;8.10;5.80;;;;;;;5.23;86.07;96221.04;101390;1300;638886;-77
2023/11/17 06:46:33;;;;;;;4.60;4.00;;;;;;;5.21;86.17;96224.73;103911;1274;96768;-77
2023/11/17 06:49:42;;;;;;;4.40;3.90;;;;;;;5.20;86.11;96225.40;104073;1271;96768;-78
2023/11/17 06:52:44;;;;;;;4.40;3.50;;;;;;;5.21;86.17;96230.25;103987;1284;98576;-77
2023/11/17 06:55:52;;;;;;;4.70;3.90;;;;;;;5.21;85.96;96232.03;104014;1269;100537;-80
2023/11/17 06:58:52;;;;;;;6.70;4.70;;;;;;;5.22;85.96;96234.04;99904;1277;109104;-77
2023/11/17 07:02:00;;;;;;;5.70;4.80;;;;;;;5.23;85.96;96234.29;103357;1291;96083;-78
2023/11/17 07:05:10;;;;;;;5.80;4.40;;;;;;;5.25;86.20;96234.05;103252;1283;100762;-79
2023/11/17 07:08:18;;;;;;;6.10;4.30;;;;;;;5.26;86.32;96233.32;102996;1278;101896;-80
2023/11/17 07:11:29;;;;;;;5.90;4.30;;;;;;;5.28;86.26;96237.72;102715;1286;100713;-76
2023/11/17 07:27:16;;;;;;;5.70;4.50;;;;;;;5.48;86.10;96253.51;101493;1299;643013;-77
2023/11/17 07:30:12;;;;;;;9.10;5.10;;;;;;;5.49;86.08;96260.42;104369;1270;96705;-76
2023/11/17 07:32:58;;;;;;;8.10;5.50;;;;;;;5.50;85.96;96264.55;104541;1268;95879;-77
2023/11/17 07:35:42;;;;;;;9.10;7.00;;;;;;;5.53;86.10;96265.41;104614;1277;107420;-80
2023/11/17 07:38:39;;;;;;;7.60;6.20;;;;;;;5.57;86.03;96264.36;104724;1278;101518;-77
2023/11/17 07:41:10;;;;;;;9.90;6.40;;;;;;;5.60;85.84;96266.55;100552;1278;5382200;-80
2023/11/17 07:44:17;;;;;;;4.90;4.40;;;;;;;5.60;85.46;96270.09;104081;1281;96940;-77
2023/11/17 07:47:24;;;;;;;5.80;5.10;;;;;;;5.60;85.29;96270.63;103831;1292;98004;-77
2023/11/17 07:50:21;;;;;;;7.40;5.80;;;;;;;5.60;85.22;96277.63;102671;1288;100091;-77
2023/11/17 07:53:40;;;;;;;5.50;5.00;;;;;;;5.61;85.24;96281.05;102253;1300;99105;-78
2023/11/17 08:13:00;;;;;;;14.00;11.40;;;;;;;5.81;85.25;96286.67;100999;1314;639707;-78
2023/11/17 08:16:09;;;;;;;13.70;11.10;;;;;;;5.87;85.22;96295.73;102527;1290;96948;-78
2023/11/17 08:42:37;;;;;;;9.50;6.90;;;;;;;6.30;84.91;96311.58;102082;1293;641447;-77
2023/11/17 08:45:47;;;;;;;7.40;5.60;;;;;;;6.49;84.64;96317.39;99266;1280;5350183;-81
2023/11/17 09:04:52;;;;;;;7.80;6.30;;;;;;;6.40;84.47;96329.09;101533;1302;638666;-78
2023/11/17 09:08:00;;;;;;;10.00;6.80;;;;;;;6.37;84.47;96326.75;103985;1267;95957;-80
2023/11/17 09:11:09;;;;;;;9.20;6.90;;;;;;;6.37;84.46;96330.09;103427;1281;97152;-78
2023/11/17 09:24:40;;;;;;;9.00;6.10;;;;;;;6.45;84.40;96339.91;101510;1300;642693;-78
2023/11/17 09:27:47;;;;;;;7.00;4.70;;;;;;;6.44;84.39;96341.98;103446;1279;96161;-78
2023/11/17 09:30:56;;;;;;;6.30;5.40;;;;;;;6.44;84.37;96340.91;102626;1291;95904;-79
2023/11/17 09:43:58;;;;;;;6.50;5.40;;;;;;;6.46;84.17;96343.21;101455;1301;638573;-77
2023/11/17 09:47:12;;;;;;;7.00;5.20;;;;;;;6.43;84.08;96342.72;103280;1283;96029;-77
2023/11/17 10:06:05;;;;;;;11.70;7.30;;;;;;;6.28;84.37;96346.86;101886;1298;636005;-77
2023/11/17 10:09:13;;;;;;;11.90;7.60;;;;;;;6.29;84.57;96348.25;103835;1275;97022;-77
2023/11/17 10:12:23;;;;;;;9.70;6.80;;;;;;;6.27;84.64;96348.44;102424;1286;96147;-78
2023/11/17 10:31:19;;;;;;;8.00;5.20;;;;;;;6.06;84.50;96353.70;101420;1314;642252;-76
2023/11/17 10:34:33;;;;;;;7.80;5.00;;;;;;;5.94;84.69;96359.48;103388;1281;96832;-77
2023/11/17 10:41:33;;;;;;;6.50;3.60;;;;;;;5.90;85.07;96358.14;101367;1303;640297;-77
2023/11/17 10:44:51;;;;;;;4.10;2.90;;;;;;;5.82;84.92;96369.02;103697;1275;96031;-78
2023/11/17 11:00:48;;;;;;;9.80;4.90;;;;;;;5.58;84.94;96386.23;101338;1304;638354;-78
2023/11/17 11:03:56;;;;;;;14.70;6.10;;;;;;;5.61;85.10;96389.70;103074;1286;96078;-78
2023/11/17 11:19:49;;;;;;;7.80;3.70;;;;;;;5.74;84.93;96404.52;102037;1297;635980;-78
2023/11/17 11:22:57;;;;;;;6.50;4.00;;;;;;;5.75;85.04;96406.64;103906;1289;97412;-78
2023/11/17 11:26:06;;;;;;;9.80;5.20;;;;;;;5.72;85.08;96413.39;102582;1300;96095;-77
2023/11/17 11:39:26;;;;;;;12.50;8.80;;;;;;;5.87;85.04;96428.53;101639;1301;642655;-77
2023/11/17 11:42:33;;;;;;;6.10;4.70;;;;;;;5.78;84.90;96432.64;102843;1283;97052;-79
2023/11/17 11:45:38;;;;;;;6.80;5.00;;;;;;;5.65;85.00;96437.11;102137;1297;96140;-80
2023/11/17 11:48:47;;;;;;;4.30;3.30;;;;;;;5.57;85.07;96439.88;102069;1296;99056;-78
2023/11/17 12:08:18;;;;;;;6.50;4.80;;;;;;;5.28;85.33;96456.88;101376;1312;640890;-78
2023/11/17 12:11:26;;;;;;;6.10;4.20;;;;;;;5.32;85.50;96463.38;102791;1290;97240;-78
2023/11/17 12:14:41;;;;;;;7.90;5.30;;;;;;;5.35;85.51;96464.95;102442;1292;95967;-79
2023/11/17 12:34:01;;;;;;;9.00;5.20;;;;;;;5.39;85.78;96470.20;101848;1295;635892;-80
2023/11/17 12:37:20;;;;;;;11.70;6.00;;;;;;;5.46;85.87;96471.42;104218;1272;96060;-79
2023/11/17 12:40:34;;;;;;;10.50;6.50;;;;;;;5.49;85.83;96472.37;106233;1280;94020;-78
2023/11/17 12:56:28;;;;;;;11.40;7.30;;;;;;;5.47;85.54;96479.07;101467;1299;639674;-78
2023/11/17 12:59:37;;;;;;;10.40;7.10;;;;;;;5.44;85.60;96480.09;102952;1287;96169;-78
2023/11/17 13:02:45;;;;;;;10.80;7.30;;;;;;;5.43;85.70;96482.52;102906;1287;97056;-80
